sensor_id;sensor_type;location;lat;lon;timestamp;P1;durP1;ratioP1;P2;durP2;ratioP2
10281;SDS011;5186;59.472;18.048;2022-07-23T00:02:06;27.87;;;8.10;;
10281;SDS011;5186;59.472;18.048;2022-07-23T00:04:32;27.70;;;8.23;;
10281;SDS011;5186;59.472;18.048;2022-07-23T00:06:58;25.47;;;7.93;;
10281;SDS011;5186;59.472;18.048;2022-07-23T00:09:24;23.87;;;7.73;;
10281;SDS011;5186;59.472;18.048;2022-07-23T00:11:50;28.90;;;8.07;;
10281;SDS011;5186;59.472;18.048;2022-07-23T00:14:15;25.47;;;7.33;;
10281;SDS011;5186;59.472;18.048;2022-07-23T00:16:41;26.77;;;8.10;;
10281;SDS011;5186;59.472;18.048;2022-07-23T00:19:07;26.27;;;8.07;;
10281;SDS011;5186;59.472;18.048;2022-07-23T00:21:33;24.70;;;7.87;;
10281;SDS011;5186;59.472;18.048;2022-07-23T00:23:58;26.83;;;8.30;;
10281;SDS011;5186;59.472;18.048;2022-07-23T00:26:24;27.27;;;8.07;;
10281;SDS011;5186;59.472;18.048;2022-07-23T00:28:50;29.20;;;8.67;;
10281;SDS011;5186;59.472;18.048;2022-07-23T00:31:15;22.67;;;8.20;;
10281;SDS011;5186;59.472;18.048;2022-07-23T00:33:44;27.90;;;9.27;;
10281;SDS011;5186;59.472;18.048;2022-07-23T00:36:10;20.43;;;7.43;;
10281;SDS011;5186;59.472;18.048;2022-07-23T00:38:35;20.70;;;8.10;;
10281;SDS011;5186;59.472;18.048;2022-07-23T00:41:01;25.70;;;7.57;;
10281;SDS011;5186;59.472;18.048;2022-07-23T00:43:27;22.17;;;7.50;;
10281;SDS011;5186;59.472;18.048;2022-07-23T00:45:52;26.30;;;7.83;;
10281;SDS011;5186;59.472;18.048;2022-07-23T00:48:18;20.70;;;7.07;;
10281;SDS011;5186;59.472;18.048;2022-07-23T00:50:44;24.77;;;7.67;;
10281;SDS011;5186;59.472;18.048;2022-07-23T00:53:10;20.77;;;7.83;;
10281;SDS011;5186;59.472;18.048;2022-07-23T00:55:36;18.53;;;6.40;;
10281;SDS011;5186;59.472;18.048;2022-07-23T00:58:02;23.60;;;6.70;;
10281;SDS011;5186;59.472;18.048;2022-07-23T01:00:29;23.43;;;6.97;;
10281;SDS011;5186;59.472;18.048;2022-07-23T01:02:55;18.83;;;5.70;;
10281;SDS011;5186;59.472;18.048;2022-07-23T01:05:20;15.70;;;5.67;;
10281;SDS011;5186;59.472;18.048;2022-07-23T01:07:49;13.80;;;5.90;;
10281;SDS011;5186;59.472;18.048;2022-07-23T01:10:16;12.67;;;5.30;;
10281;SDS011;5186;59.472;18.048;2022-07-23T01:13:01;16.27;;;5.47;;
10281;SDS011;5186;59.472;18.048;2022-07-23T01:15:29;12.70;;;5.23;;
10281;SDS011;5186;59.472;18.048;2022-07-23T01:17:55;16.43;;;6.00;;
10281;SDS011;5186;59.472;18.048;2022-07-23T01:20:20;12.10;;;4.87;;
10281;SDS011;5186;59.472;18.048;2022-07-23T01:22:47;14.50;;;4.70;;
10281;SDS011;5186;59.472;18.048;2022-07-23T01:25:13;15.47;;;5.33;;
10281;SDS011;5186;59.472;18.048;2022-07-23T01:27:39;13.43;;;4.30;;
10281;SDS011;5186;59.472;18.048;2022-07-23T01:30:05;14.77;;;4.93;;
10281;SDS011;5186;59.472;18.048;2022-07-23T01:32:31;9.63;;;4.60;;
10281;SDS011;5186;59.472;18.048;2022-07-23T01:34:57;13.13;;;4.33;;
10281;SDS011;5186;59.472;18.048;2022-07-23T01:37:22;9.47;;;4.63;;
10281;SDS011;5186;59.472;18.048;2022-07-23T01:39:48;10.57;;;3.87;;
10281;SDS011;5186;59.472;18.048;2022-07-23T01:42:14;12.30;;;4.47;;
10281;SDS011;5186;59.472;18.048;2022-07-23T01:44:39;11.47;;;4.20;;
10281;SDS011;5186;59.472;18.048;2022-07-23T01:47:05;7.63;;;3.03;;
10281;SDS011;5186;59.472;18.048;2022-07-23T01:49:31;7.83;;;3.27;;
10281;SDS011;5186;59.472;18.048;2022-07-23T01:51:56;9.17;;;3.30;;
10281;SDS011;5186;59.472;18.048;2022-07-23T01:54:28;5.50;;;2.70;;
10281;SDS011;5186;59.472;18.048;2022-07-23T01:56:55;5.23;;;2.13;;
10281;SDS011;5186;59.472;18.048;2022-07-23T01:59:22;5.40;;;2.00;;
10281;SDS011;5186;59.472;18.048;2022-07-23T02:01:48;4.20;;;1.67;;
10281;SDS011;5186;59.472;18.048;2022-07-23T02:04:20;5.30;;;1.73;;
10281;SDS011;5186;59.472;18.048;2022-07-23T02:06:47;2.43;;;1.40;;
10281;SDS011;5186;59.472;18.048;2022-07-23T02:09:13;3.70;;;1.27;;
10281;SDS011;5186;59.472;18.048;2022-07-23T02:11:39;4.77;;;1.60;;
10281;SDS011;5186;59.472;18.048;2022-07-23T02:14:06;2.90;;;1.20;;
10281;SDS011;5186;59.472;18.048;2022-07-23T02:16:31;3.13;;;1.47;;
10281;SDS011;5186;59.472;18.048;2022-07-23T02:18:57;4.20;;;1.37;;
10281;SDS011;5186;59.472;18.048;2022-07-23T02:21:23;3.93;;;1.20;;
10281;SDS011;5186;59.472;18.048;2022-07-23T02:23:49;5.67;;;1.30;;
10281;SDS011;5186;59.472;18.048;2022-07-23T02:26:14;2.63;;;1.20;;
10281;SDS011;5186;59.472;18.048;2022-07-23T02:28:40;3.83;;;1.00;;
10281;SDS011;5186;59.472;18.048;2022-07-23T02:31:06;4.30;;;1.07;;
10281;SDS011;5186;59.472;18.048;2022-07-23T02:33:32;3.40;;;1.00;;
10281;SDS011;5186;59.472;18.048;2022-07-23T02:35:58;1.67;;;0.73;;
10281;SDS011;5186;59.472;18.048;2022-07-23T02:38:23;3.03;;;0.90;;
10281;SDS011;5186;59.472;18.048;2022-07-23T02:40:49;2.57;;;0.90;;
10281;SDS011;5186;59.472;18.048;2022-07-23T02:43:15;2.30;;;0.90;;
10281;SDS011;5186;59.472;18.048;2022-07-23T02:45:40;1.83;;;0.80;;
10281;SDS011;5186;59.472;18.048;2022-07-23T02:48:06;2.17;;;0.90;;
10281;SDS011;5186;59.472;18.048;2022-07-23T02:50:32;1.93;;;1.13;;
10281;SDS011;5186;59.472;18.048;2022-07-23T02:52:57;2.30;;;0.90;;
10281;SDS011;5186;59.472;18.048;2022-07-23T02:55:23;1.87;;;0.77;;
10281;SDS011;5186;59.472;18.048;2022-07-23T02:57:49;2.60;;;0.90;;
10281;SDS011;5186;59.472;18.048;2022-07-23T03:00:14;1.50;;;1.00;;
10281;SDS011;5186;59.472;18.048;2022-07-23T03:02:40;1.83;;;1.00;;
10281;SDS011;5186;59.472;18.048;2022-07-23T03:05:06;2.00;;;1.00;;
10281;SDS011;5186;59.472;18.048;2022-07-23T03:07:32;1.97;;;0.90;;
10281;SDS011;5186;59.472;18.048;2022-07-23T03:09:58;2.03;;;1.07;;
10281;SDS011;5186;59.472;18.048;2022-07-23T03:12:23;1.30;;;0.90;;
10281;SDS011;5186;59.472;18.048;2022-07-23T03:14:49;1.53;;;0.90;;
10281;SDS011;5186;59.472;18.048;2022-07-23T03:17:15;2.50;;;0.80;;
10281;SDS011;5186;59.472;18.048;2022-07-23T03:19:40;1.43;;;0.80;;
10281;SDS011;5186;59.472;18.048;2022-07-23T03:22:06;1.10;;;0.90;;
10281;SDS011;5186;59.472;18.048;2022-07-23T03:24:32;1.53;;;0.90;;
10281;SDS011;5186;59.472;18.048;2022-07-23T03:27:17;2.13;;;1.00;;
10281;SDS011;5186;59.472;18.048;2022-07-23T03:29:42;2.57;;;1.07;;
10281;SDS011;5186;59.472;18.048;2022-07-23T03:32:08;2.10;;;0.90;;
10281;SDS011;5186;59.472;18.048;2022-07-23T03:34:34;1.20;;;1.00;;
10281;SDS011;5186;59.472;18.048;2022-07-23T03:37:00;1.57;;;0.80;;
10281;SDS011;5186;59.472;18.048;2022-07-23T03:39:26;1.33;;;1.20;;
10281;SDS011;5186;59.472;18.048;2022-07-23T03:41:51;1.97;;;0.80;;
10281;SDS011;5186;59.472;18.048;2022-07-23T03:44:17;2.13;;;1.00;;
10281;SDS011;5186;59.472;18.048;2022-07-23T03:46:43;2.77;;;1.10;;
10281;SDS011;5186;59.472;18.048;2022-07-23T03:49:08;1.57;;;0.90;;
10281;SDS011;5186;59.472;18.048;2022-07-23T03:51:34;1.23;;;1.00;;
10281;SDS011;5186;59.472;18.048;2022-07-23T03:54:00;2.83;;;1.13;;
10281;SDS011;5186;59.472;18.048;2022-07-23T03:56:26;1.57;;;1.00;;
10281;SDS011;5186;59.472;18.048;2022-07-23T03:58:52;2.53;;;1.10;;
10281;SDS011;5186;59.472;18.048;2022-07-23T04:01:18;3.80;;;1.40;;
10281;SDS011;5186;59.472;18.048;2022-07-23T04:03:44;2.20;;;1.00;;
10281;SDS011;5186;59.472;18.048;2022-07-23T04:06:11;2.57;;;1.40;;
10281;SDS011;5186;59.472;18.048;2022-07-23T04:08:37;3.80;;;1.40;;
10281;SDS011;5186;59.472;18.048;2022-07-23T04:11:02;2.07;;;1.20;;
10281;SDS011;5186;59.472;18.048;2022-07-23T04:13:29;3.37;;;1.20;;
10281;SDS011;5186;59.472;18.048;2022-07-23T04:15:54;2.77;;;1.50;;
10281;SDS011;5186;59.472;18.048;2022-07-23T04:18:20;2.47;;;1.30;;
10281;SDS011;5186;59.472;18.048;2022-07-23T04:20:48;1.67;;;1.33;;
10281;SDS011;5186;59.472;18.048;2022-07-23T04:23:15;2.97;;;1.20;;
10281;SDS011;5186;59.472;18.048;2022-07-23T04:25:42;3.17;;;1.20;;
10281;SDS011;5186;59.472;18.048;2022-07-23T04:28:08;3.30;;;1.30;;
10281;SDS011;5186;59.472;18.048;2022-07-23T04:30:33;3.73;;;1.30;;
10281;SDS011;5186;59.472;18.048;2022-07-23T04:32:59;1.67;;;1.33;;
10281;SDS011;5186;59.472;18.048;2022-07-23T04:35:25;2.77;;;1.47;;
10281;SDS011;5186;59.472;18.048;2022-07-23T04:37:51;3.80;;;1.60;;
10281;SDS011;5186;59.472;18.048;2022-07-23T04:40:17;4.53;;;1.67;;
10281;SDS011;5186;59.472;18.048;2022-07-23T04:42:43;3.23;;;1.70;;
10281;SDS011;5186;59.472;18.048;2022-07-23T04:45:09;2.80;;;1.53;;
10281;SDS011;5186;59.472;18.048;2022-07-23T04:47:34;3.23;;;1.80;;
10281;SDS011;5186;59.472;18.048;2022-07-23T04:50:00;3.17;;;1.60;;
10281;SDS011;5186;59.472;18.048;2022-07-23T04:52:26;2.03;;;1.50;;
10281;SDS011;5186;59.472;18.048;2022-07-23T04:54:52;1.97;;;1.57;;
10281;SDS011;5186;59.472;18.048;2022-07-23T04:57:17;2.43;;;1.63;;
10281;SDS011;5186;59.472;18.048;2022-07-23T04:59:43;3.00;;;1.20;;
10281;SDS011;5186;59.472;18.048;2022-07-23T05:02:09;2.97;;;1.57;;
10281;SDS011;5186;59.472;18.048;2022-07-23T05:04:34;2.03;;;1.57;;
10281;SDS011;5186;59.472;18.048;2022-07-23T05:07:00;2.20;;;1.20;;
10281;SDS011;5186;59.472;18.048;2022-07-23T05:09:25;3.63;;;1.47;;
10281;SDS011;5186;59.472;18.048;2022-07-23T05:11:51;2.33;;;1.10;;
10281;SDS011;5186;59.472;18.048;2022-07-23T05:14:17;3.53;;;1.57;;
10281;SDS011;5186;59.472;18.048;2022-07-23T05:16:43;2.40;;;1.20;;
10281;SDS011;5186;59.472;18.048;2022-07-23T05:19:08;2.57;;;1.20;;
10281;SDS011;5186;59.472;18.048;2022-07-23T05:21:34;1.13;;;1.03;;
10281;SDS011;5186;59.472;18.048;2022-07-23T05:23:59;1.03;;;0.97;;
10281;SDS011;5186;59.472;18.048;2022-07-23T05:26:25;1.53;;;1.20;;
10281;SDS011;5186;59.472;18.048;2022-07-23T05:28:51;2.93;;;1.10;;
10281;SDS011;5186;59.472;18.048;2022-07-23T05:31:17;1.53;;;0.90;;
10281;SDS011;5186;59.472;18.048;2022-07-23T05:33:42;2.30;;;1.00;;
10281;SDS011;5186;59.472;18.048;2022-07-23T05:36:08;1.27;;;0.90;;
10281;SDS011;5186;59.472;18.048;2022-07-23T05:38:34;2.23;;;1.00;;
10281;SDS011;5186;59.472;18.048;2022-07-23T05:41:00;1.70;;;1.07;;
10281;SDS011;5186;59.472;18.048;2022-07-23T05:43:26;2.07;;;1.10;;
10281;SDS011;5186;59.472;18.048;2022-07-23T05:45:52;2.03;;;1.00;;
10281;SDS011;5186;59.472;18.048;2022-07-23T05:48:18;1.43;;;0.93;;
10281;SDS011;5186;59.472;18.048;2022-07-23T05:50:44;1.90;;;0.80;;
10281;SDS011;5186;59.472;18.048;2022-07-23T05:53:09;2.07;;;1.03;;
10281;SDS011;5186;59.472;18.048;2022-07-23T05:55:38;0.80;;;0.80;;
10281;SDS011;5186;59.472;18.048;2022-07-23T05:58:04;1.30;;;1.20;;
10281;SDS011;5186;59.472;18.048;2022-07-23T06:00:30;1.10;;;0.90;;
10281;SDS011;5186;59.472;18.048;2022-07-23T06:02:56;1.87;;;1.03;;
10281;SDS011;5186;59.472;18.048;2022-07-23T06:05:22;1.90;;;0.90;;
10281;SDS011;5186;59.472;18.048;2022-07-23T06:07:48;1.93;;;0.70;;
10281;SDS011;5186;59.472;18.048;2022-07-23T06:10:14;0.60;;;0.60;;
10281;SDS011;5186;59.472;18.048;2022-07-23T06:12:40;1.90;;;0.87;;
10281;SDS011;5186;59.472;18.048;2022-07-23T06:15:09;1.00;;;0.90;;
10281;SDS011;5186;59.472;18.048;2022-07-23T06:17:35;1.47;;;0.70;;
10281;SDS011;5186;59.472;18.048;2022-07-23T06:20:01;1.87;;;0.80;;
10281;SDS011;5186;59.472;18.048;2022-07-23T06:22:26;0.90;;;0.70;;
10281;SDS011;5186;59.472;18.048;2022-07-23T06:24:52;1.60;;;0.87;;
10281;SDS011;5186;59.472;18.048;2022-07-23T06:27:17;0.70;;;0.70;;
10281;SDS011;5186;59.472;18.048;2022-07-23T06:29:46;1.27;;;0.80;;
10281;SDS011;5186;59.472;18.048;2022-07-23T06:32:12;1.33;;;0.83;;
10281;SDS011;5186;59.472;18.048;2022-07-23T06:34:38;0.70;;;0.63;;
10281;SDS011;5186;59.472;18.048;2022-07-23T06:37:03;1.37;;;0.80;;
10281;SDS011;5186;59.472;18.048;2022-07-23T06:39:29;0.80;;;0.80;;
10281;SDS011;5186;59.472;18.048;2022-07-23T06:41:55;1.27;;;0.70;;
10281;SDS011;5186;59.472;18.048;2022-07-23T06:44:21;1.13;;;0.80;;
10281;SDS011;5186;59.472;18.048;2022-07-23T06:46:46;0.80;;;0.60;;
10281;SDS011;5186;59.472;18.048;2022-07-23T06:49:12;0.77;;;0.60;;
10281;SDS011;5186;59.472;18.048;2022-07-23T06:51:37;1.43;;;0.67;;
10281;SDS011;5186;59.472;18.048;2022-07-23T06:54:03;0.70;;;0.70;;
10281;SDS011;5186;59.472;18.048;2022-07-23T06:56:29;0.50;;;0.50;;
10281;SDS011;5186;59.472;18.048;2022-07-23T06:58:55;1.10;;;0.80;;
10281;SDS011;5186;59.472;18.048;2022-07-23T07:01:23;0.87;;;0.70;;
10281;SDS011;5186;59.472;18.048;2022-07-23T07:03:48;0.83;;;0.70;;
10281;SDS011;5186;59.472;18.048;2022-07-23T07:06:14;0.53;;;0.53;;
10281;SDS011;5186;59.472;18.048;2022-07-23T07:08:40;1.30;;;0.70;;
10281;SDS011;5186;59.472;18.048;2022-07-23T07:11:08;1.17;;;0.70;;
10281;SDS011;5186;59.472;18.048;2022-07-23T07:13:33;0.60;;;0.60;;
10281;SDS011;5186;59.472;18.048;2022-07-23T07:15:59;0.97;;;0.60;;
10281;SDS011;5186;59.472;18.048;2022-07-23T07:18:25;0.53;;;0.50;;
10281;SDS011;5186;59.472;18.048;2022-07-23T07:20:50;0.97;;;0.57;;
10281;SDS011;5186;59.472;18.048;2022-07-23T07:23:16;0.60;;;0.60;;
10281;SDS011;5186;59.472;18.048;2022-07-23T07:25:41;0.70;;;0.70;;
10281;SDS011;5186;59.472;18.048;2022-07-23T07:28:10;1.27;;;0.60;;
10281;SDS011;5186;59.472;18.048;2022-07-23T07:30:36;1.07;;;0.63;;
10281;SDS011;5186;59.472;18.048;2022-07-23T07:33:01;0.73;;;0.67;;
10281;SDS011;5186;59.472;18.048;2022-07-23T07:35:27;0.70;;;0.60;;
10281;SDS011;5186;59.472;18.048;2022-07-23T07:37:53;2.03;;;0.80;;
10281;SDS011;5186;59.472;18.048;2022-07-23T07:40:18;0.83;;;0.67;;
10281;SDS011;5186;59.472;18.048;2022-07-23T07:42:49;1.37;;;0.70;;
10281;SDS011;5186;59.472;18.048;2022-07-23T07:45:16;0.57;;;0.57;;
10281;SDS011;5186;59.472;18.048;2022-07-23T07:47:44;0.50;;;0.50;;
10281;SDS011;5186;59.472;18.048;2022-07-23T07:50:10;0.50;;;0.50;;
10281;SDS011;5186;59.472;18.048;2022-07-23T07:52:35;0.40;;;0.40;;
10281;SDS011;5186;59.472;18.048;2022-07-23T07:55:04;0.53;;;0.40;;
10281;SDS011;5186;59.472;18.048;2022-07-23T07:57:32;0.40;;;0.40;;
10281;SDS011;5186;59.472;18.048;2022-07-23T07:59:58;1.03;;;0.53;;
10281;SDS011;5186;59.472;18.048;2022-07-23T08:02:24;0.30;;;0.30;;
10281;SDS011;5186;59.472;18.048;2022-07-23T08:04:49;0.73;;;0.50;;
10281;SDS011;5186;59.472;18.048;2022-07-23T08:07:15;0.63;;;0.37;;
10281;SDS011;5186;59.472;18.048;2022-07-23T08:09:41;0.50;;;0.50;;
10281;SDS011;5186;59.472;18.048;2022-07-23T08:12:07;0.80;;;0.50;;
10281;SDS011;5186;59.472;18.048;2022-07-23T08:14:33;1.10;;;0.40;;
10281;SDS011;5186;59.472;18.048;2022-07-23T08:16:58;0.40;;;0.40;;
10281;SDS011;5186;59.472;18.048;2022-07-23T08:19:24;0.40;;;0.40;;
10281;SDS011;5186;59.472;18.048;2022-07-23T08:21:50;0.83;;;0.53;;
10281;SDS011;5186;59.472;18.048;2022-07-23T08:24:15;0.30;;;0.30;;
10281;SDS011;5186;59.472;18.048;2022-07-23T08:26:41;0.50;;;0.40;;
10281;SDS011;5186;59.472;18.048;2022-07-23T08:29:07;0.50;;;0.50;;
10281;SDS011;5186;59.472;18.048;2022-07-23T08:31:33;0.57;;;0.33;;
10281;SDS011;5186;59.472;18.048;2022-07-23T08:33:59;0.67;;;0.30;;
10281;SDS011;5186;59.472;18.048;2022-07-23T08:36:25;0.43;;;0.30;;
10281;SDS011;5186;59.472;18.048;2022-07-23T08:38:57;0.30;;;0.30;;
10281;SDS011;5186;59.472;18.048;2022-07-23T08:41:24;0.40;;;0.40;;
10281;SDS011;5186;59.472;18.048;2022-07-23T08:43:50;0.60;;;0.40;;
10281;SDS011;5186;59.472;18.048;2022-07-23T08:46:16;0.40;;;0.30;;
10281;SDS011;5186;59.472;18.048;2022-07-23T08:48:44;0.30;;;0.30;;
10281;SDS011;5186;59.472;18.048;2022-07-23T08:51:13;1.60;;;0.40;;
10281;SDS011;5186;59.472;18.048;2022-07-23T08:53:39;0.70;;;0.40;;
10281;SDS011;5186;59.472;18.048;2022-07-23T08:56:06;0.30;;;0.30;;
10281;SDS011;5186;59.472;18.048;2022-07-23T08:58:32;0.73;;;0.40;;
10281;SDS011;5186;59.472;18.048;2022-07-23T09:00:58;0.50;;;0.30;;
10281;SDS011;5186;59.472;18.048;2022-07-23T09:03:26;0.30;;;0.30;;
10281;SDS011;5186;59.472;18.048;2022-07-23T09:05:53;0.27;;;0.27;;
10281;SDS011;5186;59.472;18.048;2022-07-23T09:08:23;0.30;;;0.30;;
10281;SDS011;5186;59.472;18.048;2022-07-23T09:11:08;0.60;;;0.30;;
10281;SDS011;5186;59.472;18.048;2022-07-23T09:13:46;0.50;;;0.30;;
10281;SDS011;5186;59.472;18.048;2022-07-23T09:18:46;0.30;;;0.30;;
10281;SDS011;5186;59.472;18.048;2022-07-23T09:26:22;0.40;;;0.30;;
10281;SDS011;5186;59.472;18.048;2022-07-23T09:28:50;0.30;;;0.30;;
10281;SDS011;5186;59.472;18.048;2022-07-23T09:31:20;0.30;;;0.30;;
10281;SDS011;5186;59.472;18.048;2022-07-23T09:33:47;0.30;;;0.30;;
10281;SDS011;5186;59.472;18.048;2022-07-23T09:36:12;1.10;;;0.30;;
10281;SDS011;5186;59.472;18.048;2022-07-23T09:38:48;0.30;;;0.30;;
10281;SDS011;5186;59.472;18.048;2022-07-23T09:41:15;2.47;;;0.40;;
10281;SDS011;5186;59.472;18.048;2022-07-23T09:43:40;0.30;;;0.30;;
10281;SDS011;5186;59.472;18.048;2022-07-23T09:46:22;0.40;;;0.40;;
10281;SDS011;5186;59.472;18.048;2022-07-23T09:48:52;0.70;;;0.40;;
10281;SDS011;5186;59.472;18.048;2022-07-23T09:51:21;0.50;;;0.40;;
10281;SDS011;5186;59.472;18.048;2022-07-23T09:53:50;0.50;;;0.43;;
10281;SDS011;5186;59.472;18.048;2022-07-23T09:56:15;0.40;;;0.40;;
10281;SDS011;5186;59.472;18.048;2022-07-23T09:58:42;0.50;;;0.50;;
10281;SDS011;5186;59.472;18.048;2022-07-23T10:01:17;1.63;;;0.50;;
10281;SDS011;5186;59.472;18.048;2022-07-23T10:03:44;0.47;;;0.40;;
10281;SDS011;5186;59.472;18.048;2022-07-23T10:06:13;0.57;;;0.57;;
10281;SDS011;5186;59.472;18.048;2022-07-23T10:08:40;1.03;;;0.60;;
10281;SDS011;5186;59.472;18.048;2022-07-23T10:11:07;0.70;;;0.50;;
10281;SDS011;5186;59.472;18.048;2022-07-23T10:13:34;1.33;;;0.50;;
10281;SDS011;5186;59.472;18.048;2022-07-23T10:16:19;1.50;;;0.50;;
10281;SDS011;5186;59.472;18.048;2022-07-23T10:18:46;1.73;;;0.47;;
10281;SDS011;5186;59.472;18.048;2022-07-23T10:22:00;0.77;;;0.50;;
10281;SDS011;5186;59.472;18.048;2022-07-23T10:32:17;0.83;;;0.50;;
10281;SDS011;5186;59.472;18.048;2022-07-23T10:35:19;0.63;;;0.50;;
10281;SDS011;5186;59.472;18.048;2022-07-23T10:37:54;0.63;;;0.60;;
10281;SDS011;5186;59.472;18.048;2022-07-23T10:40:25;1.33;;;0.60;;
10281;SDS011;5186;59.472;18.048;2022-07-23T10:42:51;0.60;;;0.60;;
10281;SDS011;5186;59.472;18.048;2022-07-23T10:47:53;1.33;;;0.60;;
10281;SDS011;5186;59.472;18.048;2022-07-23T10:57:59;0.67;;;0.60;;
10281;SDS011;5186;59.472;18.048;2022-07-23T11:00:30;1.17;;;0.57;;
10281;SDS011;5186;59.472;18.048;2022-07-23T11:03:01;1.43;;;0.60;;
10281;SDS011;5186;59.472;18.048;2022-07-23T11:05:42;1.23;;;0.60;;
10281;SDS011;5186;59.472;18.048;2022-07-23T11:08:10;1.47;;;0.60;;
10281;SDS011;5186;59.472;18.048;2022-07-23T11:10:52;0.90;;;0.60;;
10281;SDS011;5186;59.472;18.048;2022-07-23T11:23:57;1.10;;;0.70;;
10281;SDS011;5186;59.472;18.048;2022-07-23T11:32:03;0.80;;;0.77;;
10281;SDS011;5186;59.472;18.048;2022-07-23T11:34:31;0.80;;;0.77;;
10281;SDS011;5186;59.472;18.048;2022-07-23T11:37:03;1.40;;;0.70;;
10281;SDS011;5186;59.472;18.048;2022-07-23T11:39:31;1.50;;;0.70;;
10281;SDS011;5186;59.472;18.048;2022-07-23T11:41:58;3.17;;;0.80;;
10281;SDS011;5186;59.472;18.048;2022-07-23T11:44:25;1.17;;;0.70;;
10281;SDS011;5186;59.472;18.048;2022-07-23T11:46:58;0.57;;;0.57;;
10281;SDS011;5186;59.472;18.048;2022-07-23T11:49:26;2.63;;;0.80;;
10281;SDS011;5186;59.472;18.048;2022-07-23T11:52:02;1.07;;;0.73;;
10281;SDS011;5186;59.472;18.048;2022-07-23T11:54:31;0.53;;;0.53;;
10281;SDS011;5186;59.472;18.048;2022-07-23T11:57:01;1.10;;;0.60;;
10281;SDS011;5186;59.472;18.048;2022-07-23T11:59:29;2.47;;;0.60;;
10281;SDS011;5186;59.472;18.048;2022-07-23T12:02:01;1.20;;;0.60;;
10281;SDS011;5186;59.472;18.048;2022-07-23T12:07:05;2.37;;;0.80;;
10281;SDS011;5186;59.472;18.048;2022-07-23T12:09:57;0.67;;;0.60;;
10281;SDS011;5186;59.472;18.048;2022-07-23T12:12:25;1.10;;;0.80;;
10281;SDS011;5186;59.472;18.048;2022-07-23T12:14:52;1.43;;;0.80;;
10281;SDS011;5186;59.472;18.048;2022-07-23T12:17:20;0.97;;;0.80;;
10281;SDS011;5186;59.472;18.048;2022-07-23T12:19:54;0.90;;;0.70;;
10281;SDS011;5186;59.472;18.048;2022-07-23T12:22:22;1.13;;;0.73;;
10281;SDS011;5186;59.472;18.048;2022-07-23T12:25:00;1.30;;;0.60;;
10281;SDS011;5186;59.472;18.048;2022-07-23T12:27:30;0.87;;;0.80;;
10281;SDS011;5186;59.472;18.048;2022-07-23T12:29:56;1.67;;;0.70;;
10281;SDS011;5186;59.472;18.048;2022-07-23T12:32:23;1.27;;;0.80;;
10281;SDS011;5186;59.472;18.048;2022-07-23T12:35:00;0.87;;;0.53;;
10281;SDS011;5186;59.472;18.048;2022-07-23T12:37:33;0.67;;;0.67;;
10281;SDS011;5186;59.472;18.048;2022-07-23T12:42:53;1.40;;;0.63;;
10281;SDS011;5186;59.472;18.048;2022-07-23T12:50:51;0.83;;;0.70;;
10281;SDS011;5186;59.472;18.048;2022-07-23T12:53:26;1.90;;;0.60;;
10281;SDS011;5186;59.472;18.048;2022-07-23T12:56:00;1.77;;;0.80;;
10281;SDS011;5186;59.472;18.048;2022-07-23T13:03:54;1.40;;;0.87;;
10281;SDS011;5186;59.472;18.048;2022-07-23T13:06:22;1.27;;;0.60;;
10281;SDS011;5186;59.472;18.048;2022-07-23T13:08:48;0.70;;;0.70;;
10281;SDS011;5186;59.472;18.048;2022-07-23T13:11:14;1.93;;;0.80;;
10281;SDS011;5186;59.472;18.048;2022-07-23T13:13:39;1.27;;;0.90;;
10281;SDS011;5186;59.472;18.048;2022-07-23T13:16:06;0.97;;;0.73;;
10281;SDS011;5186;59.472;18.048;2022-07-23T13:18:32;0.93;;;0.70;;
10281;SDS011;5186;59.472;18.048;2022-07-23T13:20:58;2.13;;;0.80;;
10281;SDS011;5186;59.472;18.048;2022-07-23T13:23:25;0.90;;;0.90;;
10281;SDS011;5186;59.472;18.048;2022-07-23T13:25:51;1.13;;;0.70;;
10281;SDS011;5186;59.472;18.048;2022-07-23T13:28:18;1.47;;;0.70;;
10281;SDS011;5186;59.472;18.048;2022-07-23T13:30:46;2.70;;;0.90;;
10281;SDS011;5186;59.472;18.048;2022-07-23T13:33:14;0.93;;;0.80;;
10281;SDS011;5186;59.472;18.048;2022-07-23T13:35:41;1.47;;;0.90;;
10281;SDS011;5186;59.472;18.048;2022-07-23T13:38:06;1.50;;;0.97;;
10281;SDS011;5186;59.472;18.048;2022-07-23T13:40:33;0.70;;;0.70;;
10281;SDS011;5186;59.472;18.048;2022-07-23T13:43:07;1.97;;;0.80;;
10281;SDS011;5186;59.472;18.048;2022-07-23T13:45:34;1.53;;;0.80;;
10281;SDS011;5186;59.472;18.048;2022-07-23T13:48:00;0.70;;;0.70;;
10281;SDS011;5186;59.472;18.048;2022-07-23T13:50:26;1.43;;;0.70;;
10281;SDS011;5186;59.472;18.048;2022-07-23T13:52:51;0.67;;;0.60;;
10281;SDS011;5186;59.472;18.048;2022-07-23T13:55:17;1.57;;;0.70;;
10281;SDS011;5186;59.472;18.048;2022-07-23T13:57:43;0.70;;;0.70;;
10281;SDS011;5186;59.472;18.048;2022-07-23T14:00:09;2.17;;;0.80;;
10281;SDS011;5186;59.472;18.048;2022-07-23T14:02:37;0.70;;;0.70;;
10281;SDS011;5186;59.472;18.048;2022-07-23T14:05:04;1.00;;;0.70;;
10281;SDS011;5186;59.472;18.048;2022-07-23T14:07:32;0.80;;;0.73;;
10281;SDS011;5186;59.472;18.048;2022-07-23T14:09:58;1.17;;;0.70;;
10281;SDS011;5186;59.472;18.048;2022-07-23T14:12:24;2.53;;;0.80;;
10281;SDS011;5186;59.472;18.048;2022-07-23T14:14:50;1.23;;;0.70;;
10281;SDS011;5186;59.472;18.048;2022-07-23T14:17:18;0.70;;;0.70;;
10281;SDS011;5186;59.472;18.048;2022-07-23T14:19:44;1.10;;;1.00;;
10281;SDS011;5186;59.472;18.048;2022-07-23T14:22:10;1.90;;;1.10;;
10281;SDS011;5186;59.472;18.048;2022-07-23T14:24:37;1.57;;;0.80;;
10281;SDS011;5186;59.472;18.048;2022-07-23T14:27:04;1.37;;;0.80;;
10281;SDS011;5186;59.472;18.048;2022-07-23T14:29:30;0.90;;;0.70;;
10281;SDS011;5186;59.472;18.048;2022-07-23T14:31:57;0.60;;;0.60;;
10281;SDS011;5186;59.472;18.048;2022-07-23T14:34:24;1.20;;;0.80;;
10281;SDS011;5186;59.472;18.048;2022-07-23T14:36:50;1.50;;;0.70;;
10281;SDS011;5186;59.472;18.048;2022-07-23T14:39:17;1.13;;;0.77;;
10281;SDS011;5186;59.472;18.048;2022-07-23T14:41:43;1.50;;;0.77;;
10281;SDS011;5186;59.472;18.048;2022-07-23T14:44:09;0.70;;;0.70;;
10281;SDS011;5186;59.472;18.048;2022-07-23T14:46:35;0.90;;;0.80;;
10281;SDS011;5186;59.472;18.048;2022-07-23T14:49:01;1.40;;;0.90;;
10281;SDS011;5186;59.472;18.048;2022-07-23T14:51:28;0.70;;;0.57;;
10281;SDS011;5186;59.472;18.048;2022-07-23T14:56:51;1.23;;;0.90;;
10281;SDS011;5186;59.472;18.048;2022-07-23T14:59:24;1.40;;;0.80;;
10281;SDS011;5186;59.472;18.048;2022-07-23T15:04:52;1.33;;;0.80;;
10281;SDS011;5186;59.472;18.048;2022-07-23T15:07:30;0.97;;;0.80;;
10281;SDS011;5186;59.472;18.048;2022-07-23T15:10:17;1.07;;;0.80;;
10281;SDS011;5186;59.472;18.048;2022-07-23T15:12:47;1.10;;;0.80;;
10281;SDS011;5186;59.472;18.048;2022-07-23T15:15:16;1.23;;;0.80;;
10281;SDS011;5186;59.472;18.048;2022-07-23T15:17:47;2.50;;;0.90;;
10281;SDS011;5186;59.472;18.048;2022-07-23T15:20:19;1.10;;;0.77;;
10281;SDS011;5186;59.472;18.048;2022-07-23T15:22:45;1.10;;;0.80;;
10281;SDS011;5186;59.472;18.048;2022-07-23T15:25:23;1.13;;;0.90;;
10281;SDS011;5186;59.472;18.048;2022-07-23T15:27:56;2.73;;;1.07;;
10281;SDS011;5186;59.472;18.048;2022-07-23T15:30:34;1.73;;;0.90;;
10281;SDS011;5186;59.472;18.048;2022-07-23T15:33:23;0.90;;;0.70;;
10281;SDS011;5186;59.472;18.048;2022-07-23T15:35:55;1.57;;;0.90;;
10281;SDS011;5186;59.472;18.048;2022-07-23T15:38:22;2.83;;;0.90;;
10281;SDS011;5186;59.472;18.048;2022-07-23T15:40:53;1.13;;;0.90;;
10281;SDS011;5186;59.472;18.048;2022-07-23T15:43:20;1.30;;;0.90;;
10281;SDS011;5186;59.472;18.048;2022-07-23T15:45:59;1.23;;;0.80;;
10281;SDS011;5186;59.472;18.048;2022-07-23T15:48:27;1.20;;;0.90;;
10281;SDS011;5186;59.472;18.048;2022-07-23T15:50:53;0.90;;;0.70;;
10281;SDS011;5186;59.472;18.048;2022-07-23T15:53:28;1.67;;;0.87;;